sensor_id;sensor_type;location;lat;lon;timestamp;pressure;altitude;pressure_sealevel;temperature;humidity
26436;BME280;15351;52.408;16.826;2024-01-30T00:00:58;102382.59;;;4.75;66.21
26436;BME280;15351;52.408;16.826;2024-01-30T00:04:09;102383.33;;;4.72;66.22
26436;BME280;15351;52.408;16.826;2024-01-30T00:07:20;102388.58;;;4.67;66.02
26436;BME280;15351;52.408;16.826;2024-01-30T00:10:28;102391.13;;;4.63;66.19
26436;BME280;15351;52.408;16.826;2024-01-30T00:13:28;102389.89;;;4.61;66.41
26436;BME280;15351;52.408;16.826;2024-01-30T00:16:05;102393.50;;;4.57;66.57
26436;BME280;15351;52.408;16.826;2024-01-30T00:18:54;102387.86;;;4.57;66.70
26436;BME280;15351;52.408;16.826;2024-01-30T00:21:47;102387.41;;;4.55;66.45
26436;BME280;15351;52.408;16.826;2024-01-30T00:24:31;102383.44;;;4.53;66.64
26436;BME280;15351;52.408;16.826;2024-01-30T00:27:09;102381.95;;;4.51;66.74
26436;BME280;15351;52.408;16.826;2024-01-30T00:30:11;102372.86;;;4.48;66.92
26436;BME280;15351;52.408;16.826;2024-01-30T00:32:51;102372.45;;;4.49;67.08
26436;BME280;15351;52.408;16.826;2024-01-30T00:35:29;102376.23;;;4.51;67.12
26436;BME280;15351;52.408;16.826;2024-01-30T00:37:58;102380.08;;;4.52;67.13
26436;BME280;15351;52.408;16.826;2024-01-30T00:40:44;102377.89;;;4.53;67.07
26436;BME280;15351;52.408;16.826;2024-01-30T00:43:20;102378.58;;;4.54;67.01
26436;BME280;15351;52.408;16.826;2024-01-30T00:46:02;102374.98;;;4.51;67.13
26436;BME280;15351;52.408;16.826;2024-01-30T00:48:32;102381.41;;;4.51;66.96
26436;BME280;15351;52.408;16.826;2024-01-30T00:51:13;102381.23;;;4.51;67.14
26436;BME280;15351;52.408;16.826;2024-01-30T00:54:03;102383.26;;;4.53;67.00
26436;BME280;15351;52.408;16.826;2024-01-30T00:57:07;102384.38;;;4.52;67.02
26436;BME280;15351;52.408;16.826;2024-01-30T01:00:07;102380.89;;;4.48;66.92
26436;BME280;15351;52.408;16.826;2024-01-30T01:03:08;102383.62;;;4.44;67.01
26436;BME280;15351;52.408;16.826;2024-01-30T01:06:30;102380.32;;;4.43;67.25
26436;BME280;15351;52.408;16.826;2024-01-30T01:09:27;102372.80;;;4.40;67.09
26436;BME280;15351;52.408;16.826;2024-01-30T01:12:06;102375.88;;;4.42;67.00
26436;BME280;15351;52.408;16.826;2024-01-30T01:15:01;102372.52;;;4.39;66.87
26436;BME280;15351;52.408;16.826;2024-01-30T01:18:13;102371.54;;;4.35;67.00
26436;BME280;15351;52.408;16.826;2024-01-30T01:20:40;102371.48;;;4.30;67.05
26436;BME280;15351;52.408;16.826;2024-01-30T01:23:19;102371.00;;;4.29;67.14
26436;BME280;15351;52.408;16.826;2024-01-30T01:25:45;102370.27;;;4.29;67.13
26436;BME280;15351;52.408;16.826;2024-01-30T01:28:34;102367.27;;;4.29;67.01
26436;BME280;15351;52.408;16.826;2024-01-30T01:31:31;102370.60;;;4.27;67.11
26436;BME280;15351;52.408;16.826;2024-01-30T01:34:14;102373.41;;;4.24;67.14
26436;BME280;15351;52.408;16.826;2024-01-30T01:36:56;102372.08;;;4.23;67.21
26436;BME280;15351;52.408;16.826;2024-01-30T01:39:37;102371.70;;;4.23;67.40
26436;BME280;15351;52.408;16.826;2024-01-30T01:42:05;102366.58;;;4.26;67.27
26436;BME280;15351;52.408;16.826;2024-01-30T01:45:05;102367.20;;;4.24;67.39
26436;BME280;15351;52.408;16.826;2024-01-30T01:47:36;102371.67;;;4.24;67.25
26436;BME280;15351;52.408;16.826;2024-01-30T01:50:21;102376.78;;;4.21;67.37
26436;BME280;15351;52.408;16.826;2024-01-30T01:52:59;102375.34;;;4.18;67.42
26436;BME280;15351;52.408;16.826;2024-01-30T01:55:45;102376.60;;;4.19;67.55
26436;BME280;15351;52.408;16.826;2024-01-30T01:58:32;102375.30;;;4.19;67.35
26436;BME280;15351;52.408;16.826;2024-01-30T02:00:59;102374.08;;;4.16;67.36
26436;BME280;15351;52.408;16.826;2024-01-30T02:03:44;102375.61;;;4.18;67.34
26436;BME280;15351;52.408;16.826;2024-01-30T02:06:18;102375.91;;;4.16;67.46
26436;BME280;15351;52.408;16.826;2024-01-30T02:08:48;102371.10;;;4.13;67.54
26436;BME280;15351;52.408;16.826;2024-01-30T02:11:26;102366.20;;;4.11;67.57
26436;BME280;15351;52.408;16.826;2024-01-30T02:14:13;102367.61;;;4.12;67.59
26436;BME280;15351;52.408;16.826;2024-01-30T02:17:06;102367.63;;;4.11;67.58
26436;BME280;15351;52.408;16.826;2024-01-30T02:20:28;102367.15;;;4.08;67.41
26436;BME280;15351;52.408;16.826;2024-01-30T02:23:17;102365.04;;;4.07;67.64
26436;BME280;15351;52.408;16.826;2024-01-30T02:26:11;102367.06;;;4.06;67.69
26436;BME280;15351;52.408;16.826;2024-01-30T02:28:48;102366.48;;;4.07;67.76
26436;BME280;15351;52.408;16.826;2024-01-30T02:31:16;102366.55;;;4.09;67.65
26436;BME280;15351;52.408;16.826;2024-01-30T02:33:49;102364.31;;;4.07;67.57
26436;BME280;15351;52.408;16.826;2024-01-30T02:36:19;102361.64;;;4.04;67.47
26436;BME280;15351;52.408;16.826;2024-01-30T02:38:56;102363.90;;;4.05;67.78
26436;BME280;15351;52.408;16.826;2024-01-30T02:41:48;102363.98;;;4.07;67.76
26436;BME280;15351;52.408;16.826;2024-01-30T02:44:38;102359.91;;;4.10;67.70
26436;BME280;15351;52.408;16.826;2024-01-30T02:47:05;102357.62;;;4.12;67.54
26436;BME280;15351;52.408;16.826;2024-01-30T02:53:14;102355.95;;;4.10;67.53
26436;BME280;15351;52.408;16.826;2024-01-30T02:55:45;102356.38;;;4.09;67.52
26436;BME280;15351;52.408;16.826;2024-01-30T02:58:24;102357.70;;;4.11;67.46
26436;BME280;15351;52.408;16.826;2024-01-30T03:01:26;102358.67;;;4.12;67.50
26436;BME280;15351;52.408;16.826;2024-01-30T03:04:20;102358.66;;;4.13;67.30
26436;BME280;15351;52.408;16.826;2024-01-30T03:07:24;102356.65;;;4.11;67.34
26436;BME280;15351;52.408;16.826;2024-01-30T03:10:31;102353.36;;;4.09;67.51
26436;BME280;15351;52.408;16.826;2024-01-30T03:12:58;102348.08;;;4.11;67.64
26436;BME280;15351;52.408;16.826;2024-01-30T03:15:38;102352.89;;;4.14;67.51
26436;BME280;15351;52.408;16.826;2024-01-30T03:18:04;102348.57;;;4.14;67.43
26436;BME280;15351;52.408;16.826;2024-01-30T03:20:34;102343.87;;;4.13;67.44
26436;BME280;15351;52.408;16.826;2024-01-30T03:23:11;102343.23;;;4.12;67.50
26436;BME280;15351;52.408;16.826;2024-01-30T03:25:43;102339.29;;;4.12;67.61
26436;BME280;15351;52.408;16.826;2024-01-30T03:28:13;102338.63;;;4.14;67.56
26436;BME280;15351;52.408;16.826;2024-01-30T03:31:44;102337.90;;;4.14;67.28
26436;BME280;15351;52.408;16.826;2024-01-30T03:34:52;102339.66;;;4.15;67.36
26436;BME280;15351;52.408;16.826;2024-01-30T03:37:35;102343.55;;;4.12;67.29
26436;BME280;15351;52.408;16.826;2024-01-30T03:40:29;102339.75;;;4.10;67.50
26436;BME280;15351;52.408;16.826;2024-01-30T03:43:03;102336.00;;;4.13;67.59
26436;BME280;15351;52.408;16.826;2024-01-30T03:45:42;102333.79;;;4.17;67.53
26436;BME280;15351;52.408;16.826;2024-01-30T03:48:24;102331.16;;;4.19;67.36
26436;BME280;15351;52.408;16.826;2024-01-30T03:51:08;102332.86;;;4.18;67.31
26436;BME280;15351;52.408;16.826;2024-01-30T03:57:15;102334.09;;;4.13;67.54
26436;BME280;15351;52.408;16.826;2024-01-30T04:00:39;102333.52;;;4.13;67.44
26436;BME280;15351;52.408;16.826;2024-01-30T04:03:08;102334.10;;;4.18;67.34
26436;BME280;15351;52.408;16.826;2024-01-30T04:06:06;102340.07;;;4.17;67.37
26436;BME280;15351;52.408;16.826;2024-01-30T04:08:41;102338.34;;;4.16;67.50
26436;BME280;15351;52.408;16.826;2024-01-30T04:11:19;102339.13;;;4.17;67.57
26436;BME280;15351;52.408;16.826;2024-01-30T04:13:58;102339.45;;;4.20;67.52
26436;BME280;15351;52.408;16.826;2024-01-30T04:16:25;102341.79;;;4.23;67.33
26436;BME280;15351;52.408;16.826;2024-01-30T04:19:12;102340.34;;;4.24;67.34
26436;BME280;15351;52.408;16.826;2024-01-30T04:21:39;102339.39;;;4.22;67.50
26436;BME280;15351;52.408;16.826;2024-01-30T04:27:21;102344.20;;;4.27;67.59
26436;BME280;15351;52.408;16.826;2024-01-30T04:30:03;102345.55;;;4.31;67.53
26436;BME280;15351;52.408;16.826;2024-01-30T04:32:56;102343.36;;;4.35;67.42
26436;BME280;15351;52.408;16.826;2024-01-30T04:35:25;102344.55;;;4.36;67.40
26436;BME280;15351;52.408;16.826;2024-01-30T04:38:03;102344.36;;;4.36;67.37
26436;BME280;15351;52.408;16.826;2024-01-30T04:40:40;102344.48;;;4.37;67.44
26436;BME280;15351;52.408;16.826;2024-01-30T04:43:14;102349.92;;;4.42;67.48
26436;BME280;15351;52.408;16.826;2024-01-30T04:46:00;102347.41;;;4.45;67.23
26436;BME280;15351;52.408;16.826;2024-01-30T04:51:57;102346.32;;;4.45;67.07
26436;BME280;15351;52.408;16.826;2024-01-30T04:54:37;102344.34;;;4.43;67.24
26436;BME280;15351;52.408;16.826;2024-01-30T04:57:10;102343.42;;;4.43;67.20
26436;BME280;15351;52.408;16.826;2024-01-30T05:00:04;102342.96;;;4.45;67.08
26436;BME280;15351;52.408;16.826;2024-01-30T05:03:13;102337.95;;;4.45;66.97
26436;BME280;15351;52.408;16.826;2024-01-30T05:05:45;102341.77;;;4.44;66.79
26436;BME280;15351;52.408;16.826;2024-01-30T05:09:10;102343.30;;;4.40;66.89
26436;BME280;15351;52.408;16.826;2024-01-30T05:11:40;102342.74;;;4.37;67.06
26436;BME280;15351;52.408;16.826;2024-01-30T05:14:37;102342.80;;;4.36;66.99
26436;BME280;15351;52.408;16.826;2024-01-30T05:20:29;102348.37;;;4.38;66.86
26436;BME280;15351;52.408;16.826;2024-01-30T05:26:43;102350.83;;;4.33;67.05
26436;BME280;15351;52.408;16.826;2024-01-30T05:29:40;102347.96;;;4.30;67.06
26436;BME280;15351;52.408;16.826;2024-01-30T05:32:09;102352.54;;;4.31;67.01
26436;BME280;15351;52.408;16.826;2024-01-30T05:35:25;102349.41;;;4.30;66.87
26436;BME280;15351;52.408;16.826;2024-01-30T05:38:04;102347.44;;;4.27;66.85
26436;BME280;15351;52.408;16.826;2024-01-30T05:41:11;102348.70;;;4.24;67.11
26436;BME280;15351;52.408;16.826;2024-01-30T05:44:09;102351.05;;;4.23;67.12
26436;BME280;15351;52.408;16.826;2024-01-30T05:47:27;102353.89;;;4.26;67.13
26436;BME280;15351;52.408;16.826;2024-01-30T05:53:02;102351.77;;;4.23;66.92
26436;BME280;15351;52.408;16.826;2024-01-30T05:55:50;102345.58;;;4.22;66.99
26436;BME280;15351;52.408;16.826;2024-01-30T05:58:42;102350.45;;;4.21;67.16
26436;BME280;15351;52.408;16.826;2024-01-30T06:01:20;102347.17;;;4.19;67.14
26436;BME280;15351;52.408;16.826;2024-01-30T06:03:55;102349.05;;;4.20;67.11
26436;BME280;15351;52.408;16.826;2024-01-30T06:06:48;102354.81;;;4.19;66.98
26436;BME280;15351;52.408;16.826;2024-01-30T06:09:26;102356.31;;;4.16;66.92
26436;BME280;15351;52.408;16.826;2024-01-30T06:11:56;102354.02;;;4.13;67.05
26436;BME280;15351;52.408;16.826;2024-01-30T06:14:27;102354.41;;;4.12;67.15
26436;BME280;15351;52.408;16.826;2024-01-30T06:16:54;102350.14;;;4.09;67.08
26436;BME280;15351;52.408;16.826;2024-01-30T06:19:42;102356.35;;;4.09;67.00
26436;BME280;15351;52.408;16.826;2024-01-30T06:22:08;102355.34;;;4.08;66.91
26436;BME280;15351;52.408;16.826;2024-01-30T06:24:45;102349.85;;;4.05;67.10
26436;BME280;15351;52.408;16.826;2024-01-30T06:27:35;102350.68;;;4.03;67.17
26436;BME280;15351;52.408;16.826;2024-01-30T06:30:11;102351.08;;;4.05;67.29
26436;BME280;15351;52.408;16.826;2024-01-30T06:32:39;102352.13;;;4.05;67.16
26436;BME280;15351;52.408;16.826;2024-01-30T06:35:19;102355.19;;;4.05;67.01
26436;BME280;15351;52.408;16.826;2024-01-30T06:38:06;102354.59;;;4.03;67.15
26436;BME280;15351;52.408;16.826;2024-01-30T06:40:41;102354.41;;;4.00;67.36
26436;BME280;15351;52.408;16.826;2024-01-30T06:44:05;102356.75;;;3.99;67.53
26436;BME280;15351;52.408;16.826;2024-01-30T06:46:39;102348.45;;;4.01;67.67
26436;BME280;15351;52.408;16.826;2024-01-30T06:49:18;102348.48;;;4.07;67.61
26436;BME280;15351;52.408;16.826;2024-01-30T06:52:02;102347.35;;;4.08;67.58
26436;BME280;15351;52.408;16.826;2024-01-30T06:54:32;102348.73;;;4.09;67.48
26436;BME280;15351;52.408;16.826;2024-01-30T06:57:04;102343.52;;;4.10;67.61
26436;BME280;15351;52.408;16.826;2024-01-30T06:59:46;102343.92;;;4.12;67.62
26436;BME280;15351;52.408;16.826;2024-01-30T07:02:20;102344.03;;;4.16;67.56
26436;BME280;15351;52.408;16.826;2024-01-30T07:05:12;102343.57;;;4.18;67.40
26436;BME280;15351;52.408;16.826;2024-01-30T07:07:55;102345.58;;;4.19;67.47
26436;BME280;15351;52.408;16.826;2024-01-30T07:10:29;102349.45;;;4.20;67.36
26436;BME280;15351;52.408;16.826;2024-01-30T07:13:03;102346.59;;;4.20;67.57
26436;BME280;15351;52.408;16.826;2024-01-30T07:18:49;102352.41;;;4.33;67.65
26436;BME280;15351;52.408;16.826;2024-01-30T07:21:54;102352.25;;;4.39;67.65
26436;BME280;15351;52.408;16.826;2024-01-30T07:25:12;102353.40;;;4.43;67.59
26436;BME280;15351;52.408;16.826;2024-01-30T07:28:05;102353.84;;;4.47;67.54
26436;BME280;15351;52.408;16.826;2024-01-30T07:31:06;102356.07;;;4.52;67.64
26436;BME280;15351;52.408;16.826;2024-01-30T07:33:55;102358.86;;;4.56;67.76
26436;BME280;15351;52.408;16.826;2024-01-30T07:36:58;102359.77;;;4.63;67.76
26436;BME280;15351;52.408;16.826;2024-01-30T07:40:03;102362.95;;;4.73;67.85
26436;BME280;15351;52.408;16.826;2024-01-30T07:45:47;102356.02;;;4.87;67.62
26436;BME280;15351;52.408;16.826;2024-01-30T07:48:29;102352.68;;;4.94;67.50
26436;BME280;15351;52.408;16.826;2024-01-30T07:50:55;102343.86;;;4.96;67.32
26436;BME280;15351;52.408;16.826;2024-01-30T07:53:53;102355.45;;;5.04;67.18
26436;BME280;15351;52.408;16.826;2024-01-30T07:56:45;102351.15;;;5.07;67.11
26436;BME280;15351;52.408;16.826;2024-01-30T07:59:37;102352.67;;;5.11;67.03
26436;BME280;15351;52.408;16.826;2024-01-30T08:05:30;102342.40;;;5.18;66.93
26436;BME280;15351;52.408;16.826;2024-01-30T08:08:33;102348.65;;;5.26;66.84
26436;BME280;15351;52.408;16.826;2024-01-30T08:11:46;102348.85;;;5.31;66.78
26436;BME280;15351;52.408;16.826;2024-01-30T08:15:12;102351.91;;;5.36;66.88
26436;BME280;15351;52.408;16.826;2024-01-30T08:17:52;102352.24;;;5.42;66.62
26436;BME280;15351;52.408;16.826;2024-01-30T08:21:27;102352.20;;;5.49;66.68
26436;BME280;15351;52.408;16.826;2024-01-30T08:24:21;102353.06;;;5.54;66.64
26436;BME280;15351;52.408;16.826;2024-01-30T08:30:54;102352.04;;;5.70;66.66
26436;BME280;15351;52.408;16.826;2024-01-30T08:34:03;102348.64;;;5.75;66.48
26436;BME280;15351;52.408;16.826;2024-01-30T08:36:59;102346.94;;;5.82;66.26
26436;BME280;15351;52.408;16.826;2024-01-30T08:40:05;102344.46;;;5.87;66.22
26436;BME280;15351;52.408;16.826;2024-01-30T08:43:10;102336.67;;;5.89;66.16
26436;BME280;15351;52.408;16.826;2024-01-30T08:46:22;102345.89;;;6.00;66.23
26436;BME280;15351;52.408;16.826;2024-01-30T08:49:22;102347.07;;;6.03;66.12
26436;BME280;15351;52.408;16.826;2024-01-30T08:52:05;102347.27;;;6.08;65.98
26436;BME280;15351;52.408;16.826;2024-01-30T08:55:16;102344.73;;;6.15;65.91
26436;BME280;15351;52.408;16.826;2024-01-30T08:57:46;102347.37;;;6.17;65.99
26436;BME280;15351;52.408;16.826;2024-01-30T09:00:21;102347.33;;;6.26;65.99
26436;BME280;15351;52.408;16.826;2024-01-30T09:03:17;102343.64;;;6.37;66.06
26436;BME280;15351;52.408;16.826;2024-01-30T09:05:47;102342.62;;;6.60;65.89
26436;BME280;15351;52.408;16.826;2024-01-30T09:08:41;102338.30;;;7.02;65.72
26436;BME280;15351;52.408;16.826;2024-01-30T09:11:17;102336.88;;;7.50;64.86
26436;BME280;15351;52.408;16.826;2024-01-30T09:13:47;102331.45;;;7.89;64.05
26436;BME280;15351;52.408;16.826;2024-01-30T09:16:40;102331.45;;;8.24;63.25
26436;BME280;15351;52.408;16.826;2024-01-30T09:19:30;102327.98;;;8.56;62.56
26436;BME280;15351;52.408;16.826;2024-01-30T09:22:05;102327.66;;;8.92;61.89
26436;BME280;15351;52.408;16.826;2024-01-30T09:24:52;102323.64;;;9.21;61.17
26436;BME280;15351;52.408;16.826;2024-01-30T09:27:45;102319.56;;;9.49;60.43
26436;BME280;15351;52.408;16.826;2024-01-30T09:30:17;102314.53;;;9.77;59.65
26436;BME280;15351;52.408;16.826;2024-01-30T09:32:46;102304.14;;;10.04;58.84
26436;BME280;15351;52.408;16.826;2024-01-30T09:35:38;102299.36;;;10.40;58.14
26436;BME280;15351;52.408;16.826;2024-01-30T09:38:16;102298.27;;;10.78;57.23
26436;BME280;15351;52.408;16.826;2024-01-30T09:40:55;102294.95;;;11.13;56.50
26436;BME280;15351;52.408;16.826;2024-01-30T09:43:54;102292.66;;;11.44;55.63
26436;BME280;15351;52.408;16.826;2024-01-30T09:46:55;102288.05;;;11.73;54.75
26436;BME280;15351;52.408;16.826;2024-01-30T09:49:53;102283.27;;;11.79;54.03
26436;BME280;15351;52.408;16.826;2024-01-30T09:52:32;102279.39;;;11.71;53.52
26436;BME280;15351;52.408;16.826;2024-01-30T09:55:16;102283.79;;;11.49;53.26
26436;BME280;15351;52.408;16.826;2024-01-30T09:57:47;102279.69;;;11.19;52.95
26436;BME280;15351;52.408;16.826;2024-01-30T10:00:20;102276.95;;;10.93;53.32
26436;BME280;15351;52.408;16.826;2024-01-30T10:03:06;102283.75;;;10.78;53.28
26436;BME280;15351;52.408;16.826;2024-01-30T10:06:12;102285.52;;;10.58;53.66
26436;BME280;15351;52.408;16.826;2024-01-30T10:09:21;102281.21;;;10.44;53.86
26436;BME280;15351;52.408;16.826;2024-01-30T10:11:52;102279.68;;;10.37;53.98
26436;BME280;15351;52.408;16.826;2024-01-30T10:14:51;102279.32;;;10.37;54.12
26436;BME280;15351;52.408;16.826;2024-01-30T10:17:53;102276.02;;;10.43;54.28
26436;BME280;15351;52.408;16.826;2024-01-30T10:20:48;102272.61;;;10.66;54.30
26436;BME280;15351;52.408;16.826;2024-01-30T10:23:39;102268.21;;;10.88;54.12
26436;BME280;15351;52.408;16.826;2024-01-30T10:26:40;102266.69;;;11.09;53.99
26436;BME280;15351;52.408;16.826;2024-01-30T10:29:29;102264.91;;;11.37;53.85
26436;BME280;15351;52.408;16.826;2024-01-30T10:35:15;102255.77;;;11.82;52.28
26436;BME280;15351;52.408;16.826;2024-01-30T10:37:56;102253.43;;;11.82;51.99
26436;BME280;15351;52.408;16.826;2024-01-30T10:40:37;102247.48;;;11.78;51.57
26436;BME280;15351;52.408;16.826;2024-01-30T10:43:30;102246.83;;;11.76;51.51
26436;BME280;15351;52.408;16.826;2024-01-30T10:47:06;102250.70;;;11.75;51.77
26436;BME280;15351;52.408;16.826;2024-01-30T10:49:42;102246.41;;;11.79;51.64
26436;BME280;15351;52.408;16.826;2024-01-30T10:52:17;102245.46;;;11.85;51.20
26436;BME280;15351;52.408;16.826;2024-01-30T10:55:07;102241.70;;;11.84;51.23
26436;BME280;15351;52.408;16.826;2024-01-30T10:58:07;102244.18;;;11.92;51.28
26436;BME280;15351;52.408;16.826;2024-01-30T11:01:03;102239.32;;;12.00;51.04
26436;BME280;15351;52.408;16.826;2024-01-30T11:04:11;102236.99;;;12.11;50.92
26436;BME280;15351;52.408;16.826;2024-01-30T11:07:18;102240.87;;;12.19;50.83
26436;BME280;15351;52.408;16.826;2024-01-30T11:10:45;102234.18;;;12.25;50.43
26436;BME280;15351;52.408;16.826;2024-01-30T11:14:01;102234.84;;;12.24;50.34
26436;BME280;15351;52.408;16.826;2024-01-30T11:16:33;102228.02;;;12.20;50.24
26436;BME280;15351;52.408;16.826;2024-01-30T11:19:04;102225.08;;;12.16;50.32
26436;BME280;15351;52.408;16.826;2024-01-30T11:22:03;102222.58;;;12.13;50.21
26436;BME280;15351;52.408;16.826;2024-01-30T11:24:31;102217.49;;;12.07;50.11
26436;BME280;15351;52.408;16.826;2024-01-30T11:27:10;102208.61;;;12.02;50.10
26436;BME280;15351;52.408;16.826;2024-01-30T11:30:04;102204.74;;;11.96;50.23
26436;BME280;15351;52.408;16.826;2024-01-30T11:32:40;102208.11;;;11.93;50.15
26436;BME280;15351;52.408;16.826;2024-01-30T11:35:25;102205.75;;;11.89;50.14
26436;BME280;15351;52.408;16.826;2024-01-30T11:38:15;102201.42;;;11.83;50.18
26436;BME280;15351;52.408;16.826;2024-01-30T11:41:00;102196.45;;;11.75;50.19
26436;BME280;15351;52.408;16.826;2024-01-30T11:43:54;102194.16;;;11.67;50.43
26436;BME280;15351;52.408;16.826;2024-01-30T11:46:57;102190.20;;;11.57;50.69
26436;BME280;15351;52.408;16.826;2024-01-30T11:49:38;102185.58;;;11.49;50.95
26436;BME280;15351;52.408;16.826;2024-01-30T11:52:33;102181.92;;;11.44;51.09
26436;BME280;15351;52.408;16.826;2024-01-30T11:58:03;102182.91;;;11.35;51.06
26436;BME280;15351;52.408;16.826;2024-01-30T12:00:56;102178.66;;;11.30;51.24
26436;BME280;15351;52.408;16.826;2024-01-30T12:03:25;102172.60;;;11.24;51.41
26436;BME280;15351;52.408;16.826;2024-01-30T12:06:41;102175.61;;;11.23;51.52
26436;BME280;15351;52.408;16.826;2024-01-30T12:09:40;102172.91;;;11.23;51.46
26436;BME280;15351;52.408;16.826;2024-01-30T12:12:47;102165.34;;;11.23;51.60
26436;BME280;15351;52.408;16.826;2024-01-30T12:19:32;102154.84;;;11.21;51.41
26436;BME280;15351;52.408;16.826;2024-01-30T12:25:43;102155.50;;;11.24;51.57
26436;BME280;15351;52.408;16.826;2024-01-30T12:29:06;102156.39;;;11.24;51.43
26436;BME280;15351;52.408;16.826;2024-01-30T12:32:07;102155.19;;;11.21;51.53
26436;BME280;15351;52.408;16.826;2024-01-30T12:34:46;102153.17;;;11.20;51.40
26436;BME280;15351;52.408;16.826;2024-01-30T12:38:26;102151.80;;;11.15;51.54
26436;BME280;15351;52.408;16.826;2024-01-30T12:41:20;102145.71;;;11.13;51.63
26436;BME280;15351;52.408;16.826;2024-01-30T12:43:51;102139.86;;;11.12;51.56
26436;BME280;15351;52.408;16.826;2024-01-30T12:46:17;102139.93;;;11.09;51.53
26436;BME280;15351;52.408;16.826;2024-01-30T12:49:17;102138.05;;;11.06;51.58
26436;BME280;15351;52.408;16.826;2024-01-30T12:52:22;102136.89;;;11.01;51.82
26436;BME280;15351;52.408;16.826;2024-01-30T12:55:06;102135.46;;;10.97;51.85
26436;BME280;15351;52.408;16.826;2024-01-30T12:57:45;102134.41;;;10.95;52.13
26436;BME280;15351;52.408;16.826;2024-01-30T13:00:36;102132.51;;;10.92;52.13
26436;BME280;15351;52.408;16.826;2024-01-30T13:03:38;102123.95;;;10.89;52.09
26436;BME280;15351;52.408;16.826;2024-01-30T13:06:34;102125.48;;;10.88;52.28
26436;BME280;15351;52.408;16.826;2024-01-30T13:09:30;102123.49;;;10.86;52.62
26436;BME280;15351;52.408;16.826;2024-01-30T13:12:18;102123.86;;;10.86;52.73
26436;BME280;15351;52.408;16.826;2024-01-30T13:14:49;102123.06;;;10.85;52.78
26436;BME280;15351;52.408;16.826;2024-01-30T13:17:23;102123.48;;;10.84;52.94
26436;BME280;15351;52.408;16.826;2024-01-30T13:20:22;102119.42;;;10.84;53.11
26436;BME280;15351;52.408;16.826;2024-01-30T13:23:18;102122.89;;;10.83;53.16
26436;BME280;15351;52.408;16.826;2024-01-30T13:26:05;102124.94;;;10.82;52.97
26436;BME280;15351;52.408;16.826;2024-01-30T13:29:00;102113.93;;;10.81;52.98
26436;BME280;15351;52.408;16.826;2024-01-30T13:32:02;102112.02;;;10.80;52.95
26436;BME280;15351;52.408;16.826;2024-01-30T13:34:50;102109.30;;;10.81;53.09
26436;BME280;15351;52.408;16.826;2024-01-30T13:37:32;102107.75;;;10.80;52.94
26436;BME280;15351;52.408;16.826;2024-01-30T13:40:08;102103.70;;;10.79;52.83
26436;BME280;15351;52.408;16.826;2024-01-30T13:42:49;102101.02;;;10.77;52.89
26436;BME280;15351;52.408;16.826;2024-01-30T13:45:17;102102.44;;;10.75;53.14
26436;BME280;15351;52.408;16.826;2024-01-30T13:48:08;102104.36;;;10.74;53.21
26436;BME280;15351;52.408;16.826;2024-01-30T13:50:54;102100.10;;;10.71;53.12
26436;BME280;15351;52.408;16.826;2024-01-30T13:53:32;102103.16;;;10.69;52.96
26436;BME280;15351;52.408;16.826;2024-01-30T13:56:05;102101.11;;;10.66;52.99
26436;BME280;15351;52.408;16.826;2024-01-30T13:58:49;102102.02;;;10.64;53.00
26436;BME280;15351;52.408;16.826;2024-01-30T14:01:20;102098.94;;;10.62;53.21
26436;BME280;15351;52.408;16.826;2024-01-30T14:04:01;102100.60;;;10.59;53.33
26436;BME280;15351;52.408;16.826;2024-01-30T14:07:08;102098.45;;;10.58;53.34
26436;BME280;15351;52.408;16.826;2024-01-30T14:09:53;102094.52;;;10.56;53.58
26436;BME280;15351;52.408;16.826;2024-01-30T14:12:49;102092.32;;;10.52;53.70
26436;BME280;15351;52.408;16.826;2024-01-30T14:15:18;102090.66;;;10.49;53.71
26436;BME280;15351;52.408;16.826;2024-01-30T14:17:48;102089.36;;;10.45;53.80
26436;BME280;15351;52.408;16.826;2024-01-30T14:20:16;102082.80;;;10.42;53.67
26436;BME280;15351;52.408;16.826;2024-01-30T14:23:16;102082.54;;;10.39;53.86
26436;BME280;15351;52.408;16.826;2024-01-30T14:26:02;102080.48;;;10.36;53.80
26436;BME280;15351;52.408;16.826;2024-01-30T14:28:38;102076.70;;;10.34;53.92
26436;BME280;15351;52.408;16.826;2024-01-30T14:31:24;102075.30;;;10.32;53.97
26436;BME280;15351;52.408;16.826;2024-01-30T14:34:51;102073.77;;;10.27;53.88
26436;BME280;15351;52.408;16.826;2024-01-30T14:37:49;102077.45;;;10.24;53.91
26436;BME280;15351;52.408;16.826;2024-01-30T14:40:31;102081.38;;;10.20;54.03
26436;BME280;15351;52.408;16.826;2024-01-30T14:43:06;102097.65;;;10.17;54.08
26436;BME280;15351;52.408;16.826;2024-01-30T14:45:42;102099.33;;;10.15;53.96
26436;BME280;15351;52.408;16.826;2024-01-30T14:49:05;102099.76;;;10.10;54.15
26436;BME280;15351;52.408;16.826;2024-01-30T14:51:44;102104.83;;;10.03;54.35
26436;BME280;15351;52.408;16.826;2024-01-30T14:54:33;102107.53;;;9.99;54.65
26436;BME280;15351;52.408;16.826;2024-01-30T14:57:20;102109.05;;;9.94;54.57
26436;BME280;15351;52.408;16.826;2024-01-30T15:03:32;102107.67;;;9.84;55.15
26436;BME280;15351;52.408;16.826;2024-01-30T15:06:48;102110.04;;;9.79;55.30
26436;BME280;15351;52.408;16.826;2024-01-30T15:10:13;102109.23;;;9.70;55.66
26436;BME280;15351;52.408;16.826;2024-01-30T15:13:04;102110.23;;;9.60;55.88
26436;BME280;15351;52.408;16.826;2024-01-30T15:15:50;102111.38;;;9.53;56.24
26436;BME280;15351;52.408;16.826;2024-01-30T15:18:57;102111.44;;;9.47;56.42
26436;BME280;15351;52.408;16.826;2024-01-30T15:22:04;102111.27;;;9.40;56.49
26436;BME280;15351;52.408;16.826;2024-01-30T15:24:48;102109.05;;;9.32;56.62